ホワイトホース の空港の天気 - METARとTAF

ホワイトホース国際空港 ( CYXY / YXY ) - カナダ ユーコン準州ホワイトホース
飛行場実況気象(Metar)
観測時間10/18 01:00 PDT (10/18 08:00 UTC)
風向・風速南東 1m/s
視程2400m
天気現象弱い雪 もや
全天の8割程度の雲 雲底高度 180m
全天を覆う雲 雲底高度 520m
気温0℃
湿度100%
気圧988.2hPa
METARCYXY 180800Z 13002KT 1 1/2SM R32L/4500VP6000FT/U -SN BR BKN006 OVC017 00/00 A2908 RMK SF5ST3 PCPN VRY LGT CIG RAG SLP882
過去の天気等 Google飛行場航空写真 Wunderground天気予報

過去48時間のMETAR

飛行場予報(TAF)
発表時間: 10/17 22:38 PDT (10/18 05:38 UTC)
予報対象時間: 17日23時 PDT ~ 18日11時 PDT
風向・風速不定 2m/s
視程1610m
天気現象弱いしゅう雪 もや
全天を覆う雲 雲底高度 150m
17日23時 PDT ~ 18日5時 PDT に一時的に
視程4830m
天気現象弱い雪 もや
全天の4割程度の雲 雲底高度 150m
全天を覆う雲 雲底高度 370m
18日5時 PDT から
風向・風速不定 2m/s
視程3220m
天気現象弱い雪 弱い氷霧雨 もや
全天を覆う雲 雲底高度 120m
18日5時 PDT ~ 18日11時 PDT に一時的に
視程10km以上
天気現象運行に影響にある天気現象が終了
全天を覆う雲 雲底高度 240m
TAF CYXY 180538Z 1806/1818 VRB03KT 1SM -SHSN BR OVC005
TEMPO 1806/1812 3SM -SN BR SCT005 OVC012
FM181200 VRB03KT 2SM -SN -FZDZ BR OVC004
TEMPO 1812/1818 P6SM NSW OVC008 RMK NXT FCST BY 181200Z